Time;durP1;ratioP1;P1;durP2;ratioP2;P2;SDS_P1;SDS_P2;PMS_P1;PMS_P2;Temp;Humidity;BMP_temperature;BMP_pressure;BME280_temperature;BME280_humidity;BME280_pressure;Samples;Min_cycle;Max_cycle;Signal;HPM_P1;HPM_P2
2022/12/31 00:02:33;;;;;;;11.30;5.90;;;23.00;53.30;;;;;;209320;1315;22698;-47
2022/12/31 00:08:10;;;;;;;8.20;5.90;;;23.00;53.80;;;;;;209024;1329;25678;-46
2022/12/31 00:13:49;;;;;;;8.30;6.10;;;22.90;54.40;;;;;;201984;1327;10308178;-45
2022/12/31 00:19:26;;;;;;;9.20;5.70;;;22.80;54.30;;;;;;209059;1323;22503;-46
2022/12/31 00:25:03;;;;;;;12.70;5.60;;;22.90;56.60;;;;;;208998;1329;22555;-43
2022/12/31 00:30:41;;;;;;;12.20;6.20;;;22.80;56.50;;;;;;209562;1308;23914;-43
2022/12/31 00:36:23;;;;;;;10.20;5.60;;;22.70;56.80;;;;;;208936;1317;22501;-45
2022/12/31 00:42:00;;;;;;;9.80;5.80;;;22.60;56.60;;;;;;208850;1315;25391;-46
2022/12/31 00:47:37;;;;;;;8.30;5.50;;;22.50;56.50;;;;;;217433;1315;22169;-45
2022/12/31 00:53:14;;;;;;;13.80;6.20;;;22.50;57.50;;;;;;217426;1313;22198;-47
2022/12/31 00:58:51;;;;;;;12.40;5.60;;;22.50;59.50;;;;;;213313;1322;23932;-46
2022/12/31 01:04:28;;;;;;;10.10;5.00;;;22.40;58.50;;;;;;208993;1324;22564;-46
2022/12/31 01:10:05;;;;;;;9.00;5.20;;;22.30;58.50;;;;;;209043;1324;22619;-47
2022/12/31 01:15:43;;;;;;;10.60;5.60;;;22.20;58.70;;;;;;208852;1336;22583;-46
2022/12/31 01:21:21;;;;;;;7.90;4.70;;;22.10;58.50;;;;;;216134;1322;22663;-44
2022/12/31 01:26:58;;;;;;;9.00;5.50;;;22.10;58.10;;;;;;209005;1313;22530;-46
2022/12/31 01:32:35;;;;;;;8.20;4.90;;;22.00;58.20;;;;;;209175;1329;25401;-45
2022/12/31 01:38:12;;;;;;;9.10;5.30;;;22.00;58.00;;;;;;209262;1311;24304;-45
2022/12/31 01:43:53;;;;;;;7.70;4.90;;;22.00;58.20;;;;;;209209;1315;22493;-48
2022/12/31 01:49:42;;;;;;;7.20;4.60;;;21.90;58.00;;;;;;209234;1328;22958;-46
2022/12/31 01:55:28;;;;;;;6.10;3.30;;;21.90;57.80;;;;;;209216;1312;22513;-46
2022/12/31 02:01:05;;;;;;;6.60;4.50;;;21.80;57.70;;;;;;217833;1305;22139;-47
2022/12/31 02:06:47;;;;;;;6.90;4.50;;;21.80;57.70;;;;;;209224;1317;22738;-45
2022/12/31 02:12:24;;;;;;;6.60;4.40;;;21.80;57.60;;;;;;211878;1321;24037;-47
2022/12/31 02:18:07;;;;;;;8.00;4.30;;;21.70;57.70;;;;;;209281;1317;22518;-46
2022/12/31 02:24:22;;;;;;;7.20;4.70;;;21.70;57.60;;;;;;209211;1318;24044;-45
2022/12/31 02:30:23;;;;;;;8.80;4.80;;;21.70;57.70;;;;;;210969;1317;22673;-47
2022/12/31 02:36:07;;;;;;;7.60;4.90;;;21.60;57.60;;;;;;215365;1324;22510;-46
2022/12/31 02:41:50;;;;;;;7.00;4.20;;;21.60;57.60;;;;;;211278;1329;22883;-46
2022/12/31 02:47:41;;;;;;;7.10;4.60;;;21.60;57.60;;;;;;217278;1314;22301;-48
2022/12/31 02:53:18;;;;;;;7.10;4.50;;;21.60;57.60;;;;;;209968;1326;22622;-46
2022/12/31 03:05:02;;;;;;;5.10;3.80;;;21.50;57.70;;;;;;209265;1328;22714;-46
2022/12/31 03:10:39;;;;;;;6.80;4.30;;;21.50;57.70;;;;;;209143;1314;22538;-46
2022/12/31 03:16:16;;;;;;;6.40;4.00;;;21.50;57.70;;;;;;209123;1329;22503;-44
2022/12/31 03:27:49;;;;;;;5.00;3.50;;;21.40;57.60;;;;;;209199;1323;22548;-46
2022/12/31 03:33:28;;;;;;;8.80;3.80;;;21.40;57.60;;;;;;210601;1321;22553;-46
2022/12/31 03:39:05;;;;;;;8.50;3.80;;;21.40;57.60;;;;;;209262;1329;22525;-46
2022/12/31 03:44:42;;;;;;;5.60;3.50;;;21.40;57.60;;;;;;209147;1314;22480;-45
2022/12/31 03:50:22;;;;;;;6.10;3.90;;;21.40;57.70;;;;;;216580;1321;22636;-45
2022/12/31 03:56:00;;;;;;;7.80;4.40;;;21.30;57.70;;;;;;211754;1305;22649;-45
2022/12/31 04:01:37;;;;;;;5.20;2.60;;;21.30;57.20;;;;;;209126;1315;23390;-46
2022/12/31 04:07:14;;;;;;;6.70;3.60;;;21.30;58.10;;;;;;209072;1321;22741;-45
2022/12/31 04:12:51;;;;;;;7.70;3.80;;;21.20;57.70;;;;;;209142;1321;22475;-45
2022/12/31 04:18:28;;;;;;;7.10;4.50;;;21.20;57.80;;;;;;209055;1327;22630;-45
2022/12/31 04:24:06;;;;;;;4.90;3.20;;;21.20;57.70;;;;;;209216;1315;22645;-46
2022/12/31 04:29:43;;;;;;;5.50;3.90;;;21.10;57.70;;;;;;209219;1324;22505;-47
2022/12/31 04:35:20;;;;;;;4.50;3.30;;;21.10;57.90;;;;;;209215;1328;23456;-45
2022/12/31 04:41:16;;;;;;;5.60;3.40;;;21.10;58.00;;;;;;209180;1321;22596;-46
2022/12/31 04:46:52;;;;;;;5.90;3.20;;;21.10;58.10;;;;;;209256;1315;22508;-46
2022/12/31 04:52:29;;;;;;;6.10;4.00;;;21.10;58.00;;;;;;209386;1329;22486;-46
2022/12/31 04:58:11;;;;;;;7.60;3.80;;;21.00;58.00;;;;;;209227;1321;25373;-46
2022/12/31 05:03:48;;;;;;;4.60;3.00;;;21.00;58.10;;;;;;209253;1314;24366;-46
2022/12/31 05:09:27;;;;;;;5.00;3.30;;;21.10;58.10;;;;;;209073;1314;22620;-49
2022/12/31 05:15:03;;;;;;;4.50;3.10;;;21.40;57.70;;;;;;209162;1321;22503;-48
2022/12/31 05:20:41;;;;;;;5.00;3.10;;;21.70;57.20;;;;;;209149;1299;22517;-46
2022/12/31 05:26:18;;;;;;;4.80;3.00;;;21.90;56.60;;;;;;209340;1312;23109;-47
2022/12/31 05:31:55;;;;;;;5.30;3.20;;;22.10;56.40;;;;;;213082;1322;24001;-45
2022/12/31 05:37:34;;;;;;;4.90;3.20;;;22.30;55.60;;;;;;209277;1315;23481;-47
2022/12/31 05:43:11;;;;;;;5.60;3.40;;;22.30;55.40;;;;;;209141;1313;24367;-48
2022/12/31 05:48:48;;;;;;;4.70;3.00;;;22.50;54.90;;;;;;209068;1315;25294;-45
2022/12/31 05:54:25;;;;;;;4.20;3.00;;;22.60;54.80;;;;;;209128;1314;23067;-46
2022/12/31 06:00:02;;;;;;;4.10;2.90;;;22.60;55.00;;;;;;209125;1315;24377;-47
2022/12/31 06:05:40;;;;;;;5.40;3.30;;;22.60;54.60;;;;;;209316;1322;24031;-48
2022/12/31 06:11:17;;;;;;;6.60;3.00;;;22.80;54.30;;;;;;209371;1321;22743;-47
2022/12/31 06:16:54;;;;;;;4.40;2.80;;;22.80;54.30;;;;;;209319;1321;22567;-46
2022/12/31 06:22:31;;;;;;;6.20;3.60;;;22.90;54.70;;;;;;211408;1323;26731;-46
2022/12/31 06:28:11;;;;;;;7.50;3.60;;;22.90;54.30;;;;;;209211;1325;23112;-48
2022/12/31 06:33:49;;;;;;;4.70;3.30;;;22.90;54.30;;;;;;213630;1314;24318;-45
2022/12/31 06:39:26;;;;;;;5.10;3.10;;;22.90;54.20;;;;;;209266;1314;23248;-48
2022/12/31 06:45:04;;;;;;;4.50;3.10;;;22.90;54.50;;;;;;209181;1316;26616;-45
2022/12/31 06:50:41;;;;;;;4.30;2.90;;;23.00;54.10;;;;;;209991;1316;22802;-46
2022/12/31 06:56:29;;;;;;;4.40;2.90;;;23.00;54.10;;;;;;217653;1314;22538;-46
2022/12/31 07:02:27;;;;;;;4.90;2.90;;;23.00;54.00;;;;;;217807;1322;22839;-44
2022/12/31 07:08:13;;;;;;;4.40;3.00;;;23.10;54.50;;;;;;210173;1322;24269;-47
2022/12/31 07:14:34;;;;;;;3.70;2.70;;;23.20;53.80;;;;;;209693;1322;24272;-48
2022/12/31 07:20:16;;;;;;;4.10;2.80;;;23.20;53.70;;;;;;216885;1315;22264;-47
2022/12/31 07:26:21;;;;;;;4.50;3.00;;;23.20;53.90;;;;;;208476;1320;22545;-48
2022/12/31 07:31:58;;;;;;;;;;;23.10;53.90;;;;;;207422;1333;23219;-46
2022/12/31 07:37:53;;;;;;;3.70;2.40;;;23.00;54.10;;;;;;207726;1321;22502;-45
2022/12/31 07:43:33;;;;;;;3.90;2.60;;;22.90;55.20;;;;;;207546;1320;24302;-46
2022/12/31 07:49:16;;;;;;;4.60;2.90;;;22.80;54.80;;;;;;207907;1325;22451;-48
2022/12/31 07:54:53;;;;;;;5.60;2.70;;;22.70;55.20;;;;;;214546;1323;25309;-47
2022/12/31 08:00:31;;;;;;;4.40;2.70;;;22.60;55.50;;;;;;212582;1320;23234;-50
2022/12/31 08:06:28;;;;;;;4.50;2.80;;;22.60;55.80;;;;;;208317;1320;25128;-47
2022/12/31 08:12:07;;;;;;;3.70;2.60;;;22.50;55.70;;;;;;208907;1301;22520;-45
2022/12/31 08:17:44;;;;;;;3.60;2.60;;;22.40;56.30;;;;;;208966;1329;22582;-47
2022/12/31 08:23:50;;;;;;;4.60;2.60;;;22.30;56.10;;;;;;208974;1317;22504;-46
2022/12/31 08:29:55;;;;;;;6.30;2.90;;;22.30;56.50;;;;;;209075;1314;22672;-45
2022/12/31 08:35:57;;;;;;;3.50;2.40;;;22.20;56.30;;;;;;209228;1309;22541;-46
2022/12/31 08:41:40;;;;;;;7.60;2.90;;;22.20;56.70;;;;;;209115;1311;24426;-45
2022/12/31 08:47:31;;;;;;;4.30;2.70;;;22.10;56.70;;;;;;210082;1328;22676;-45
2022/12/31 08:53:08;;;;;;;3.20;2.30;;;22.10;56.80;;;;;;209240;1309;22661;-47
2022/12/31 08:59:24;;;;;;;4.10;2.80;;;22.10;56.40;;;;;;217997;1311;22048;-46
2022/12/31 09:05:15;;;;;;;7.40;2.50;;;22.10;56.90;;;;;;217949;1318;22130;-47
2022/12/31 09:11:04;;;;;;;4.10;2.70;;;22.00;57.10;;;;;;209714;1318;24212;-46
2022/12/31 09:17:03;;;;;;;2.60;2.00;;;22.10;56.70;;;;;;210710;1320;22998;-46
2022/12/31 09:22:40;;;;;;;8.10;2.60;;;22.00;56.80;;;;;;209064;1304;22583;-45
2022/12/31 09:28:45;;;;;;;10.90;2.40;;;22.00;57.30;;;;;;212145;1322;23865;-47
2022/12/31 09:34:41;;;;;;;7.50;2.20;;;22.00;57.40;;;;;;209242;1310;23041;-47
2022/12/31 09:40:51;;;;;;;8.70;2.30;;;22.00;57.30;;;;;;208973;1311;22542;-47
2022/12/31 09:46:34;;;;;;;6.10;2.30;;;22.00;57.90;;;;;;210672;1321;24308;-48
2022/12/31 09:52:30;;;;;;;9.30;3.00;;;22.00;58.70;;;;;;209096;1318;22584;-50
2022/12/31 09:58:29;;;;;;;8.40;2.60;;;22.00;60.10;;;;;;217762;1323;23219;-47
2022/12/31 10:04:20;;;;;;;21.70;2.60;;;22.00;58.90;;;;;;215141;1322;24983;-46
2022/12/31 10:10:11;;;;;;;4.10;2.20;;;22.00;58.70;;;;;;210955;1305;25008;-46
2022/12/31 10:16:08;;;;;;;4.10;1.90;;;22.00;58.80;;;;;;212332;1315;22527;-51
2022/12/31 10:22:03;;;;;;;4.90;1.80;;;21.90;58.50;;;;;;209128;1321;22584;-48
2022/12/31 10:27:59;;;;;;;5.50;2.20;;;21.90;58.60;;;;;;208979;1321;22735;-46
2022/12/31 10:33:48;;;;;;;4.70;1.90;;;22.00;58.40;;;;;;217658;1321;22842;-54
2022/12/31 10:39:44;;;;;;;5.50;2.10;;;22.00;58.20;;;;;;213748;1316;24315;-51
2022/12/31 10:45:24;;;;;;;3.50;2.10;;;22.00;57.90;;;;;;208832;1321;22492;-51
2022/12/31 10:51:49;;;;;;;6.90;2.00;;;22.00;57.90;;;;;;209061;1320;22530;-50
2022/12/31 10:57:47;;;;;;;6.60;1.90;;;21.90;57.70;;;;;;208946;1328;22510;-52
2022/12/31 11:03:54;;;;;;;8.00;2.80;;;21.90;57.60;;;;;;208948;1317;26893;-52
2022/12/31 11:09:50;;;;;;;7.80;2.10;;;22.00;58.00;;;;;;209226;1324;22617;-48
2022/12/31 11:15:27;;;;;;;8.10;2.50;;;22.00;57.90;;;;;;209059;1317;22503;-52
2022/12/31 11:21:55;;;;;;;13.10;2.70;;;22.00;57.90;;;;;;213947;1321;22780;-49
2022/12/31 11:28:01;;;;;;;8.10;2.20;;;22.00;57.90;;;;;;213711;1319;22650;-47
2022/12/31 11:34:01;;;;;;;8.40;2.10;;;22.10;58.10;;;;;;208735;1324;22681;-53
2022/12/31 11:39:44;;;;;;;12.20;2.30;;;22.10;57.90;;;;;;208792;1311;22527;-49
2022/12/31 11:45:30;;;;;;;17.60;3.70;;;22.20;57.30;;;;;;208923;1312;23951;-45
2022/12/31 11:51:53;;;;;;;14.40;3.30;;;22.30;58.00;;;;;;214588;1319;23653;-51
2022/12/31 11:57:44;;;;;;;18.80;4.50;;;22.20;59.40;;;;;;208936;1315;22563;-53
2022/12/31 12:03:23;;;;;;;23.50;4.00;;;22.30;59.70;;;;;;208840;1310;22530;-54
2022/12/31 12:09:16;;;;;;;19.80;3.30;;;22.40;58.60;;;;;;209113;1321;22515;-52
2022/12/31 12:15:59;;;;;;;21.90;3.50;;;22.50;58.30;;;;;;209363;1329;10180269;-54
2022/12/31 12:22:31;;;;;;;12.10;3.30;;;22.50;58.70;;;;;;211689;1327;26640;-54
2022/12/31 12:28:34;;;;;;;6.90;3.10;;;22.50;58.10;;;;;;210872;1328;22712;-54
2022/12/31 12:34:28;;;;;;;;;;;22.50;58.60;;;;;;209608;1308;25441;-51
2022/12/31 12:40:33;;;;;;;4.40;2.20;;;22.50;58.70;;;;;;209256;1314;24828;-50
2022/12/31 12:46:23;;;;;;;11.30;2.90;;;22.40;58.90;;;;;;217711;1314;22135;-52
2022/12/31 12:52:31;;;;;;;22.80;3.20;;;22.40;59.30;;;;;;209102;1316;25465;-51
2022/12/31 12:58:30;;;;;;;12.10;3.50;;;22.40;59.40;;;;;;209084;1312;22578;-49
2022/12/31 13:04:47;;;;;;;5.70;2.40;;;22.40;59.80;;;;;;209618;1308;23547;-48
2022/12/31 13:10:35;;;;;;;8.70;2.80;;;22.30;59.30;;;;;;213425;1322;25628;-52
2022/12/31 13:16:33;;;;;;;6.60;3.30;;;22.30;59.30;;;;;;209088;1326;22516;-48
2022/12/31 13:22:24;;;;;;;5.70;2.90;;;22.30;59.50;;;;;;209186;1322;22568;-53
2022/12/31 13:28:05;;;;;;;7.40;2.70;;;22.20;59.50;;;;;;213532;1323;22521;-53
2022/12/31 13:33:46;;;;;;;;;;;22.20;59.00;;;;;;209498;1321;22596;-49
2022/12/31 13:39:30;;;;;;;7.00;2.90;;;22.20;59.20;;;;;;209158;1321;24336;-52
2022/12/31 13:45:14;;;;;;;6.00;2.70;;;22.10;59.00;;;;;;209550;1311;25609;-53
2022/12/31 13:51:50;;;;;;;1.90;1.20;;;22.00;59.10;;;;;;209828;1312;24337;-52
2022/12/31 13:58:16;;;;;;;6.90;2.50;;;22.10;59.20;;;;;;216740;1328;23008;-49
2022/12/31 14:04:23;;;;;;;5.80;2.50;;;22.00;58.90;;;;;;211471;1326;22773;-51
2022/12/31 14:10:00;;;;;;;7.60;2.80;;;22.00;59.10;;;;;;208823;1327;25275;-47
2022/12/31 14:15:40;;;;;;;;;;;22.00;58.80;;;;;;207929;1333;22514;-48
2022/12/31 14:21:24;;;;;;;5.90;2.60;;;22.00;59.00;;;;;;216698;1326;22148;-52
2022/12/31 14:27:05;;;;;;;5.80;2.50;;;22.00;59.00;;;;;;216366;1320;22629;-46
2022/12/31 14:33:15;;;;;;;5.70;2.60;;;22.00;59.40;;;;;;217161;1321;23172;-52
2022/12/31 14:39:16;;;;;;;8.30;2.40;;;22.00;59.20;;;;;;217465;1322;22916;-49
2022/12/31 14:45:07;;;;;;;5.80;2.50;;;22.00;59.00;;;;;;215495;1309;25563;-50
2022/12/31 14:50:44;;;;;;;7.10;3.20;;;22.00;58.20;;;;;;209037;1308;22502;-51
2022/12/31 14:56:50;;;;;;;8.50;3.20;;;21.90;59.10;;;;;;208923;1314;24373;-49
2022/12/31 15:02:38;;;;;;;5.80;2.90;;;21.90;59.10;;;;;;208988;1318;22492;-48
2022/12/31 15:08:47;;;;;;;5.20;2.90;;;21.90;59.50;;;;;;208949;1320;24121;-49
2022/12/31 15:14:39;;;;;;;6.80;2.70;;;21.80;59.30;;;;;;208974;1324;22611;-49
2022/12/31 15:20:19;;;;;;;6.80;2.70;;;21.80;60.80;;;;;;210350;1323;22500;-46
2022/12/31 15:26:07;;;;;;;8.10;3.30;;;21.90;60.70;;;;;;209362;1322;22799;-48
2022/12/31 15:31:53;;;;;;;7.20;2.80;;;21.90;60.40;;;;;;210555;1328;22867;-46
2022/12/31 15:37:40;;;;;;;5.30;2.70;;;21.90;60.40;;;;;;209131;1308;22621;-47
2022/12/31 15:43:38;;;;;;;5.20;2.60;;;21.80;60.40;;;;;;210102;1309;22467;-46
2022/12/31 15:49:22;;;;;;;8.20;3.00;;;21.90;60.40;;;;;;210119;1314;22659;-48
2022/12/31 15:55:01;;;;;;;7.10;2.70;;;21.90;60.00;;;;;;209316;1311;22536;-46
2022/12/31 16:01:11;;;;;;;13.50;2.90;;;21.90;60.10;;;;;;209106;1321;22590;-48
2022/12/31 16:06:48;;;;;;;22.40;2.90;;;21.90;60.10;;;;;;213575;1306;24353;-47
2022/12/31 16:12:33;;;;;;;7.30;2.80;;;21.90;59.60;;;;;;212413;1323;23460;-46
2022/12/31 16:18:17;;;;;;;8.70;3.10;;;21.90;59.70;;;;;;217146;1322;22277;-50
2022/12/31 16:23:58;;;;;;;6.50;3.00;;;21.90;59.50;;;;;;211499;1315;22531;-54
2022/12/31 16:29:40;;;;;;;7.50;2.70;;;21.80;60.10;;;;;;212449;1311;23649;-50
2022/12/31 16:35:36;;;;;;;6.10;2.90;;;21.90;60.40;;;;;;209865;1324;22633;-53
2022/12/31 16:41:24;;;;;;;6.70;3.00;;;21.90;60.90;;;;;;217979;1320;22221;-48
2022/12/31 16:47:04;;;;;;;9.60;3.10;;;22.00;60.50;;;;;;210844;1318;22543;-50
2022/12/31 16:52:44;;;;;;;5.90;3.00;;;21.90;60.00;;;;;;209168;1311;22538;-46
2022/12/31 16:58:32;;;;;;;5.20;2.70;;;21.90;59.90;;;;;;209802;1323;25368;-47
2022/12/31 17:04:16;;;;;;;5.00;2.70;;;21.90;59.80;;;;;;209936;1324;24449;-48
2022/12/31 17:09:58;;;;;;;5.40;2.30;;;21.90;59.60;;;;;;217086;1308;22357;-48
2022/12/31 17:15:48;;;;;;;4.80;2.70;;;21.90;60.20;;;;;;213014;1314;22496;-46
2022/12/31 17:21:30;;;;;;;5.30;2.70;;;21.80;59.90;;;;;;209083;1315;24390;-47
2022/12/31 17:27:12;;;;;;;11.00;2.20;;;21.80;59.50;;;;;;209039;1314;22524;-47
2022/12/31 17:32:50;;;;;;;12.80;2.80;;;21.80;59.90;;;;;;209058;1311;22560;-47
2022/12/31 17:38:27;;;;;;;7.60;2.50;;;21.80;60.00;;;;;;209132;1311;25137;-46
2022/12/31 17:44:06;;;;;;;7.20;2.30;;;21.70;60.60;;;;;;210879;1314;23301;-47
2022/12/31 17:49:49;;;;;;;14.00;3.90;;;21.70;60.50;;;;;;208919;1327;24342;-48
2022/12/31 17:55:26;;;;;;;12.30;2.50;;;21.70;60.40;;;;;;214528;1314;23912;-49
2022/12/31 18:01:06;;;;;;;9.50;2.30;;;21.70;60.50;;;;;;210489;1315;24348;-47
2022/12/31 18:06:43;;;;;;;11.80;3.10;;;21.70;60.10;;;;;;209125;1330;22496;-47
2022/12/31 18:12:20;;;;;;;8.10;2.60;;;21.70;60.00;;;;;;208867;1308;22510;-47
2022/12/31 18:17:58;;;;;;;7.40;2.80;;;21.70;59.90;;;;;;208922;1329;22707;-48
2022/12/31 18:24:01;;;;;;;5.00;2.50;;;21.70;59.90;;;;;;208939;1317;25363;-49
2022/12/31 18:29:38;;;;;;;13.20;2.70;;;21.70;60.20;;;;;;209149;1312;22551;-47
2022/12/31 18:35:30;;;;;;;7.40;2.90;;;21.70;60.80;;;;;;214446;1314;22495;-48
2022/12/31 18:41:32;;;;;;;4.80;2.50;;;21.70;60.60;;;;;;209204;1329;22509;-51
2022/12/31 18:47:12;;;;;;;5.80;2.80;;;21.60;59.80;;;;;;217929;1312;22208;-51
2022/12/31 18:52:48;;;;;;;5.00;2.50;;;21.60;59.60;;;;;;217804;1322;23456;-47
2022/12/31 18:58:25;;;;;;;5.80;2.40;;;21.60;59.50;;;;;;217286;1322;23327;-50
2022/12/31 19:04:05;;;;;;;7.40;2.70;;;21.60;59.40;;;;;;209862;1314;25696;-46
2022/12/31 19:09:42;;;;;;;6.80;2.50;;;21.60;59.40;;;;;;210888;1321;23318;-48
2022/12/31 19:15:40;;;;;;;5.70;2.70;;;21.60;59.40;;;;;;209380;1313;22495;-49
2022/12/31 19:21:21;;;;;;;4.80;2.60;;;21.50;59.60;;;;;;210675;1321;22504;-48
2022/12/31 19:26:59;;;;;;;11.00;2.70;;;21.40;59.30;;;;;;209182;1329;25130;-48
2022/12/31 19:32:36;;;;;;;5.50;2.50;;;21.40;59.40;;;;;;209026;1315;22493;-48
2022/12/31 19:38:30;;;;;;;4.70;2.40;;;21.40;59.90;;;;;;209317;1313;23380;-50
2022/12/31 19:44:07;;;;;;;5.00;2.50;;;21.40;59.40;;;;;;209604;1321;22494;-47
2022/12/31 19:49:45;;;;;;;5.20;1.80;;;21.40;59.30;;;;;;209248;1315;22517;-47
2022/12/31 19:55:25;;;;;;;6.70;2.30;;;21.40;59.40;;;;;;209436;1328;24314;-47
2022/12/31 20:01:03;;;;;;;4.50;2.40;;;21.40;59.40;;;;;;209653;1315;22547;-47
2022/12/31 20:06:41;;;;;;;4.30;2.20;;;21.40;59.00;;;;;;211960;1318;22510;-49
2022/12/31 20:12:18;;;;;;;4.70;2.30;;;21.70;59.10;;;;;;209290;1329;22723;-48
2022/12/31 20:17:56;;;;;;;3.70;2.20;;;22.00;57.90;;;;;;209432;1329;22627;-47
2022/12/31 20:23:33;;;;;;;3.40;2.00;;;22.20;57.30;;;;;;209249;1317;22645;-50
2022/12/31 20:29:10;;;;;;;3.40;1.90;;;22.40;56.40;;;;;;209223;1327;22558;-47
2022/12/31 20:34:47;;;;;;;4.40;2.30;;;22.40;56.60;;;;;;209047;1320;22603;-49
2022/12/31 20:40:24;;;;;;;3.50;1.90;;;22.50;56.30;;;;;;209282;1324;22695;-48
2022/12/31 20:46:01;;;;;;;3.20;1.80;;;22.70;56.20;;;;;;209093;1314;22553;-47
2022/12/31 20:51:44;;;;;;;4.80;2.10;;;22.70;55.50;;;;;;209246;1306;23628;-51
2022/12/31 20:57:21;;;;;;;3.70;2.30;;;22.80;55.70;;;;;;209092;1308;22520;-48
2022/12/31 21:03:02;;;;;;;3.40;2.00;;;22.90;56.00;;;;;;209438;1314;24486;-50
2022/12/31 21:09:04;;;;;;;4.60;2.40;;;23.00;55.40;;;;;;209146;1330;23676;-51
2022/12/31 21:14:41;;;;;;;4.70;2.00;;;23.00;55.30;;;;;;209072;1328;22578;-48
2022/12/31 21:20:18;;;;;;;3.20;2.10;;;23.10;55.50;;;;;;209352;1311;22741;-49
2022/12/31 21:25:55;;;;;;;7.90;2.20;;;23.20;55.40;;;;;;209452;1307;24355;-50
2022/12/31 21:31:32;;;;;;;3.20;1.50;;;23.30;54.80;;;;;;209116;1324;22690;-48
2022/12/31 21:37:09;;;;;;;3.40;2.10;;;23.30;54.80;;;;;;209297;1321;22487;-50
2022/12/31 21:42:46;;;;;;;3.80;2.10;;;23.30;54.70;;;;;;209317;1329;24381;-51
2022/12/31 21:48:23;;;;;;;2.60;1.80;;;23.30;54.90;;;;;;209418;1318;22546;-49
2022/12/31 21:54:00;;;;;;;3.80;2.00;;;23.10;55.70;;;;;;209029;1325;22498;-48
2022/12/31 22:05:53;;;;;;;2.40;1.70;;;23.00;55.70;;;;;;209199;1328;24408;-50
2022/12/31 22:11:32;;;;;;;3.00;1.80;;;22.90;55.90;;;;;;209268;1314;22487;-48
2022/12/31 22:17:09;;;;;;;2.80;1.90;;;22.80;56.10;;;;;;209279;1317;22585;-48
2022/12/31 22:22:46;;;;;;;3.00;1.90;;;22.70;56.20;;;;;;209238;1328;23044;-48
2022/12/31 22:28:23;;;;;;;2.70;1.80;;;22.60;56.80;;;;;;209008;1329;22668;-48
2022/12/31 22:34:09;;;;;;;3.00;1.90;;;22.50;56.40;;;;;;209139;1326;23398;-49
2022/12/31 22:39:46;;;;;;;3.80;1.90;;;22.50;56.60;;;;;;209114;1321;22509;-51
2022/12/31 22:45:24;;;;;;;2.80;1.90;;;22.40;57.50;;;;;;209065;1305;22872;-48
2022/12/31 22:51:02;;;;;;;4.10;1.80;;;22.40;56.60;;;;;;208956;1317;23810;-49
2022/12/31 22:56:39;;;;;;;3.00;1.90;;;22.30;57.00;;;;;;209124;1321;22880;-50
2022/12/31 23:02:16;;;;;;;3.20;1.80;;;22.30;57.00;;;;;;209020;1317;22634;-47
2022/12/31 23:07:53;;;;;;;3.00;1.80;;;22.20;57.50;;;;;;208995;1309;22534;-49
2022/12/31 23:25:38;;;;;;;3.70;1.90;;;22.10;57.40;;;;;;209159;1308;22645;-48
2022/12/31 23:31:15;;;;;;;3.50;2.10;;;22.00;57.70;;;;;;209381;1330;27813;-50
2022/12/31 23:36:52;;;;;;;3.20;2.00;;;22.00;57.50;;;;;;209348;1321;22757;-47
2022/12/31 23:42:29;;;;;;;3.10;1.80;;;22.00;57.60;;;;;;210122;1317;22503;-49
2022/12/31 23:48:06;;;;;;;2.90;1.90;;;21.90;57.50;;;;;;209366;1321;22552;-52
2022/12/31 23:53:37;;;;;;;3.10;2.10;;;21.90;57.60;;;;;;209237;1311;23007;-48
2022/12/31 23:59:17;;;;;;;;;;;21.80;57.60;;;;;;210495;1311;24449;-48
